createdAt,value
2019-03-26T00:01:43.259Z,75.90
2019-03-26T00:04:13.808Z,76.00
2019-03-26T00:06:43.413Z,76.23
2019-03-26T00:09:12.967Z,77.51
2019-03-26T00:11:42.519Z,77.06
2019-03-26T00:14:12.447Z,77.53
2019-03-26T00:16:42.719Z,77.71
2019-03-26T00:19:12.360Z,77.81
2019-03-26T00:21:41.938Z,77.42
2019-03-26T00:24:11.515Z,77.80
2019-03-26T00:26:41.085Z,77.86
2019-03-26T00:29:10.649Z,77.76
2019-03-26T00:31:40.236Z,77.42
2019-03-26T00:34:19.095Z,77.23
2019-03-26T00:36:41.146Z,77.34
2019-03-26T00:39:11.131Z,76.58
2019-03-26T00:41:41.051Z,76.71
2019-03-26T00:44:10.665Z,76.80
2019-03-26T00:46:40.856Z,75.78
2019-03-26T00:49:10.945Z,75.07
2019-03-26T00:51:40.849Z,74.17
2019-03-26T00:54:11.195Z,73.21
2019-03-26T00:56:41.159Z,74.51
2019-03-26T00:59:11.437Z,73.43
2019-03-26T01:01:40.997Z,72.77
2019-03-26T01:04:11.023Z,71.87
2019-03-26T01:06:40.630Z,72.12
2019-03-26T01:09:10.217Z,72.77
2019-03-26T01:11:39.809Z,71.72
2019-03-26T01:14:09.738Z,71.76
2019-03-26T01:16:39.314Z,72.06
2019-03-26T01:19:08.887Z,71.37
2019-03-26T01:21:38.519Z,71.29
2019-03-26T01:24:08.385Z,71.43
2019-03-26T01:26:38.017Z,71.39
2019-03-26T01:29:07.633Z,70.95
2019-03-26T01:31:37.645Z,70.79
2019-03-26T01:34:07.202Z,69.82
2019-03-26T01:36:36.749Z,69.82
2019-03-26T01:39:07.405Z,70.61
2019-03-26T01:41:36.974Z,70.96
2019-03-26T01:44:06.921Z,71.01
2019-03-26T01:46:36.460Z,71.43
2019-03-26T01:49:06.031Z,70.28
2019-03-26T01:51:35.594Z,71.32
2019-03-26T01:54:05.177Z,72.14
2019-03-26T01:56:34.759Z,71.51
2019-03-26T01:59:04.684Z,70.06
2019-03-26T02:01:34.809Z,70.81
2019-03-26T02:04:04.404Z,71.68
2019-03-26T02:06:34.293Z,70.82
2019-03-26T02:09:04.401Z,71.44
2019-03-26T02:11:34.101Z,69.83
2019-03-26T02:14:03.673Z,70.42
2019-03-26T02:16:33.643Z,69.04
2019-03-26T02:19:03.211Z,70.69
2019-03-26T02:21:32.783Z,70.47
2019-03-26T02:24:02.367Z,69.43
2019-03-26T02:26:31.947Z,70.55
2019-03-26T02:29:01.549Z,70.43
2019-03-26T02:31:31.108Z,70.17
2019-03-26T02:34:00.694Z,70.53
2019-03-26T02:36:30.574Z,69.22
2019-03-26T02:39:00.457Z,70.96
2019-03-26T02:41:30.052Z,70.56
2019-03-26T02:43:59.747Z,69.51
2019-03-26T02:46:29.761Z,70.03
2019-03-26T02:48:59.437Z,70.77
2019-03-26T02:51:29.030Z,69.15
2019-03-26T02:53:59.113Z,70.58
2019-03-26T02:56:28.698Z,70.85
2019-03-26T02:58:58.627Z,71.17
2019-03-26T03:01:28.621Z,71.05
2019-03-26T03:03:58.179Z,71.53
2019-03-26T03:06:28.151Z,71.53
2019-03-26T03:08:58.140Z,72.28
2019-03-26T03:11:28.057Z,72.50
2019-03-26T03:13:57.720Z,73.20
2019-03-26T03:16:27.271Z,72.91
2019-03-26T03:18:56.909Z,73.53
2019-03-26T03:21:26.987Z,74.06
2019-03-26T03:23:56.865Z,73.62
2019-03-26T03:26:26.482Z,73.79
2019-03-26T03:28:56.714Z,72.92
2019-03-26T03:31:26.942Z,73.45
2019-03-26T03:33:56.782Z,72.99
2019-03-26T03:36:27.083Z,73.73
2019-03-26T03:38:56.640Z,74.23
2019-03-26T03:41:26.608Z,73.68
2019-03-26T03:43:56.167Z,74.09
2019-03-26T03:46:26.103Z,74.70
2019-03-26T03:48:55.793Z,75.13
2019-03-26T03:51:26.290Z,76.21
2019-03-26T03:53:55.876Z,75.87
2019-03-26T03:56:26.962Z,76.05
2019-03-26T03:58:57.968Z,76.38
2019-03-26T04:01:27.537Z,75.78
2019-03-26T04:03:57.337Z,77.15
2019-03-26T04:06:27.165Z,77.76
2019-03-26T04:08:56.825Z,77.77
2019-03-26T04:11:26.704Z,77.93
2019-03-26T04:13:56.266Z,78.25
2019-03-26T04:16:26.117Z,77.55
2019-03-26T04:18:56.041Z,77.44
2019-03-26T04:21:25.629Z,77.71
2019-03-26T04:23:55.252Z,77.79
2019-03-26T04:26:24.828Z,77.68
2019-03-26T04:28:54.461Z,76.53
2019-03-26T04:31:24.042Z,76.41
2019-03-26T04:33:54.000Z,75.94
2019-03-26T04:36:25.819Z,75.77
2019-03-26T04:38:54.870Z,75.77
2019-03-26T04:41:24.535Z,75.90
2019-03-26T04:43:54.499Z,75.47
2019-03-26T04:46:24.186Z,75.60
2019-03-26T04:48:53.750Z,75.81
2019-03-26T04:51:23.294Z,75.97
2019-03-26T04:53:53.267Z,75.69
2019-03-26T04:56:22.844Z,75.74
2019-03-26T04:58:52.454Z,75.83
2019-03-26T05:01:22.513Z,75.33
2019-03-26T05:03:52.378Z,75.51
2019-03-26T05:06:22.606Z,76.21
2019-03-26T05:08:52.196Z,76.12
2019-03-26T05:11:21.756Z,76.78
2019-03-26T05:13:51.374Z,77.15
2019-03-26T05:16:20.974Z,77.60
2019-03-26T05:18:50.931Z,78.26
2019-03-26T05:21:20.512Z,78.74
2019-03-26T05:23:51.949Z,78.97
2019-03-26T05:26:21.656Z,79.60
2019-03-26T05:28:51.212Z,79.80
2019-03-26T05:31:21.127Z,79.93
2019-03-26T05:33:50.699Z,80.45
2019-03-26T05:36:20.342Z,80.97
2019-03-26T05:38:50.210Z,81.32
2019-03-26T05:41:20.320Z,80.60
2019-03-26T05:43:50.775Z,80.65
2019-03-26T05:46:21.084Z,81.54
2019-03-26T05:48:50.680Z,81.91
2019-03-26T05:51:20.380Z,82.18
2019-03-26T05:53:49.991Z,82.08
2019-03-26T05:56:20.414Z,82.32
2019-03-26T05:58:50.096Z,82.16
2019-03-26T06:01:20.066Z,82.14
2019-03-26T06:03:49.941Z,82.19
2019-03-26T06:06:19.548Z,81.85
2019-03-26T06:08:49.129Z,81.78
2019-03-26T06:11:19.382Z,81.71
2019-03-26T06:13:49.672Z,81.60
2019-03-26T06:16:19.212Z,81.46
2019-03-26T06:18:48.798Z,80.28
2019-03-26T06:21:18.400Z,80.59
2019-03-26T06:23:48.470Z,80.80
2019-03-26T06:26:18.384Z,80.83
2019-03-26T06:28:48.272Z,80.19
2019-03-26T06:31:17.927Z,78.62
2019-03-26T06:33:47.982Z,79.11
2019-03-26T06:36:17.958Z,79.63
2019-03-26T06:38:47.618Z,79.74
2019-03-26T06:41:17.222Z,79.74
2019-03-26T06:43:46.842Z,79.99
2019-03-26T06:46:16.774Z,79.43
2019-03-26T06:48:46.412Z,79.17
2019-03-26T06:51:16.375Z,78.89
2019-03-26T06:53:45.940Z,78.29
2019-03-26T06:56:16.208Z,78.02
2019-03-26T06:58:45.924Z,78.81
2019-03-26T07:01:16.121Z,79.13
2019-03-26T07:03:45.794Z,78.97
2019-03-26T07:06:15.384Z,78.92
2019-03-26T07:08:45.275Z,78.50
2019-03-26T07:11:14.841Z,78.75
2019-03-26T07:13:44.413Z,79.02
2019-03-26T07:16:14.014Z,78.53
2019-03-26T07:18:44.682Z,77.84
2019-03-26T07:21:14.742Z,77.16
2019-03-26T07:23:44.376Z,77.53
2019-03-26T07:26:14.326Z,77.13
2019-03-26T07:28:44.309Z,76.83
2019-03-26T07:31:14.327Z,76.34
2019-03-26T07:33:43.918Z,76.20
2019-03-26T07:36:13.684Z,75.67
2019-03-26T07:38:43.302Z,75.18
2019-03-26T07:41:13.236Z,75.13
2019-03-26T07:43:42.836Z,74.99
2019-03-26T07:46:12.799Z,74.35
2019-03-26T07:48:42.393Z,73.80
2019-03-26T07:51:12.400Z,73.74
2019-03-26T07:53:41.980Z,73.09
2019-03-26T07:56:11.988Z,72.50
2019-03-26T07:58:41.929Z,72.53
2019-03-26T08:01:11.533Z,72.94
2019-03-26T08:03:42.091Z,72.24
2019-03-26T08:06:11.648Z,71.99
2019-03-26T08:08:41.252Z,71.52
2019-03-26T08:11:11.154Z,70.99
2019-03-26T08:13:41.262Z,70.74
2019-03-26T08:16:11.251Z,70.52
2019-03-26T08:18:40.960Z,70.25
2019-03-26T08:21:10.639Z,69.40
2019-03-26T08:23:40.486Z,69.31
2019-03-26T08:26:10.713Z,68.62
2019-03-26T08:28:40.358Z,68.64
2019-03-26T08:31:11.832Z,66.72
2019-03-26T08:33:41.562Z,66.59
2019-03-26T08:36:11.143Z,64.32
2019-03-26T08:38:40.732Z,63.68
2019-03-26T08:41:10.339Z,63.68
2019-03-26T08:43:41.115Z,64.35
2019-03-26T08:46:10.748Z,63.36
2019-03-26T08:48:42.668Z,62.48
2019-03-26T08:51:14.656Z,62.64
2019-03-26T08:53:44.291Z,62.16
2019-03-26T08:56:14.604Z,62.05
2019-03-26T08:58:44.180Z,60.74
2019-03-26T09:01:13.800Z,61.11
2019-03-26T09:03:43.584Z,59.93
2019-03-26T09:06:13.588Z,58.54
2019-03-26T09:08:43.668Z,55.72
2019-03-26T09:11:13.484Z,55.00
2019-03-26T09:13:43.370Z,51.80
2019-03-26T09:16:13.014Z,48.12
2019-03-26T09:18:42.936Z,47.77
2019-03-26T09:21:12.634Z,48.66
2019-03-26T09:23:42.658Z,50.39
2019-03-26T09:26:12.276Z,51.13
2019-03-26T09:28:42.059Z,52.77
2019-03-26T09:31:11.736Z,54.43
2019-03-26T09:33:41.333Z,55.64
2019-03-26T09:36:11.213Z,56.09
2019-03-26T09:38:40.883Z,56.33
2019-03-26T09:41:11.003Z,55.81
2019-03-26T09:43:40.564Z,56.87
2019-03-26T09:46:10.165Z,56.88
2019-03-26T09:48:39.881Z,57.55
2019-03-26T09:51:10.978Z,56.51
2019-03-26T09:53:40.929Z,56.33
2019-03-26T09:56:10.535Z,56.41
2019-03-26T09:58:40.091Z,56.06
2019-03-26T10:01:09.733Z,56.75
2019-03-26T10:03:39.665Z,56.12
2019-03-26T10:06:09.239Z,55.59
2019-03-26T10:08:51.399Z,56.24
2019-03-26T10:11:12.926Z,57.05
2019-03-26T10:13:42.485Z,56.25
2019-03-26T10:16:12.532Z,55.14
2019-03-26T10:18:42.114Z,55.63
2019-03-26T10:21:15.138Z,53.88
2019-03-26T10:23:44.833Z,53.92
2019-03-26T10:26:14.414Z,53.44
2019-03-26T10:28:44.361Z,51.44
2019-03-26T10:31:13.947Z,50.50
2019-03-26T10:33:43.636Z,52.92
2019-03-26T10:36:13.611Z,53.00
2019-03-26T10:38:44.362Z,52.43
2019-03-26T10:41:14.089Z,51.14
2019-03-26T10:43:44.079Z,50.52
2019-03-26T10:46:14.051Z,51.80
2019-03-26T10:48:43.905Z,51.96
2019-03-26T10:51:13.995Z,53.32
2019-03-26T10:53:43.575Z,54.35
2019-03-26T10:56:13.159Z,54.61
2019-03-26T10:58:42.773Z,55.96
2019-03-26T11:01:12.366Z,54.15
2019-03-26T11:03:41.973Z,49.94
2019-03-26T11:06:11.710Z,48.68
2019-03-26T11:08:45.048Z,49.59
2019-03-26T11:11:13.300Z,52.09
2019-03-26T11:13:45.490Z,52.92
2019-03-26T11:16:15.430Z,52.76
2019-03-26T11:18:45.125Z,52.97
2019-03-26T11:21:15.010Z,54.24
2019-03-26T11:23:46.091Z,55.34
2019-03-26T11:26:15.670Z,55.63
2019-03-26T11:28:45.291Z,55.28
2019-03-26T11:31:14.878Z,56.49
2019-03-26T11:33:44.438Z,56.76
2019-03-26T11:36:15.487Z,54.85
2019-03-26T11:38:45.400Z,54.72
2019-03-26T11:41:15.013Z,55.09
2019-03-26T11:43:44.635Z,55.02
2019-03-26T11:46:16.261Z,55.43
2019-03-26T11:48:45.952Z,53.34
2019-03-26T11:51:15.551Z,51.89
2019-03-26T11:53:45.273Z,52.23
2019-03-26T11:56:17.866Z,51.98
2019-03-26T11:58:47.457Z,52.97
2019-03-26T12:01:18.152Z,53.01
2019-03-26T12:03:48.117Z,52.60
2019-03-26T12:06:18.031Z,54.29
2019-03-26T12:08:48.519Z,54.25
2019-03-26T12:11:18.108Z,51.15
2019-03-26T12:13:47.986Z,46.73
2019-03-26T12:16:19.030Z,47.05
2019-03-26T12:18:48.933Z,47.08
2019-03-26T12:21:18.740Z,45.66
2019-03-26T12:23:48.342Z,43.01
2019-03-26T12:26:17.894Z,43.86
2019-03-26T12:28:48.123Z,44.96
2019-03-26T12:31:18.426Z,47.58
2019-03-26T12:33:47.999Z,49.72
2019-03-26T12:36:17.572Z,51.15
2019-03-26T12:38:49.244Z,48.44
2019-03-26T12:41:19.256Z,46.92
2019-03-26T12:43:48.833Z,44.20
2019-03-26T12:46:18.415Z,44.96
2019-03-26T12:48:48.066Z,46.96
2019-03-26T12:51:18.156Z,47.37
2019-03-26T12:53:48.146Z,49.06
2019-03-26T12:56:17.721Z,46.53
2019-03-26T12:58:47.349Z,51.35
2019-03-26T13:01:19.680Z,50.45
2019-03-26T13:03:49.816Z,51.22
2019-03-26T13:06:19.393Z,49.93
2019-03-26T13:08:49.010Z,45.99
2019-03-26T13:11:18.596Z,45.03
2019-03-26T13:13:48.219Z,46.04
2019-03-26T13:16:18.094Z,44.22
2019-03-26T13:18:47.916Z,40.75
2019-03-26T13:21:17.462Z,43.31
2019-03-26T13:23:47.050Z,45.31
2019-03-26T13:26:16.632Z,44.80
2019-03-26T13:28:46.604Z,48.07
2019-03-26T13:31:16.519Z,48.95
2019-03-26T13:33:46.147Z,50.08
2019-03-26T13:36:15.724Z,50.19
2019-03-26T13:38:45.946Z,52.35
2019-03-26T13:41:17.600Z,51.51
2019-03-26T13:43:47.170Z,53.05
2019-03-26T13:46:16.721Z,53.52
2019-03-26T13:48:46.387Z,50.58
2019-03-26T13:51:16.302Z,49.33
2019-03-26T13:53:46.103Z,49.79
2019-03-26T13:56:15.718Z,52.00
2019-03-26T13:58:45.271Z,51.97
2019-03-26T14:01:17.687Z,48.94
2019-03-26T14:03:48.002Z,50.60
2019-03-26T14:06:17.575Z,48.50
2019-03-26T14:08:47.182Z,48.38
2019-03-26T14:11:16.820Z,48.71
2019-03-26T14:13:46.694Z,49.06
2019-03-26T14:16:20.117Z,47.31
2019-03-26T14:18:49.721Z,47.40
2019-03-26T14:21:19.334Z,47.29
2019-03-26T14:23:49.204Z,46.89
2019-03-26T14:26:19.068Z,45.36
2019-03-26T14:28:48.918Z,48.07
2019-03-26T14:31:19.363Z,43.08
2019-03-26T14:33:49.006Z,46.62
2019-03-26T14:36:18.608Z,45.25
2019-03-26T14:38:48.202Z,50.25
2019-03-26T14:41:17.802Z,45.88
2019-03-26T14:43:47.429Z,46.96
2019-03-26T14:46:17.167Z,44.28
2019-03-26T14:48:47.094Z,47.24
2019-03-26T14:51:16.757Z,47.17
2019-03-26T14:53:46.320Z,47.77
2019-03-26T14:56:15.907Z,50.36
2019-03-26T14:58:45.446Z,52.18
2019-03-26T15:01:15.186Z,50.67
2019-03-26T15:03:44.804Z,50.41
2019-03-26T15:06:14.734Z,50.03
2019-03-26T15:08:44.330Z,51.66
2019-03-26T15:11:14.262Z,51.28
2019-03-26T15:13:44.204Z,51.12
2019-03-26T15:16:13.829Z,52.03
2019-03-26T15:18:44.372Z,52.55
2019-03-26T15:21:14.594Z,50.25
2019-03-26T15:23:44.414Z,49.76
2019-03-26T15:26:15.003Z,49.41
2019-03-26T15:28:44.848Z,51.01
2019-03-26T15:31:14.458Z,50.58
2019-03-26T15:33:45.830Z,49.15
2019-03-26T15:36:15.386Z,47.52
2019-03-26T15:38:45.028Z,45.27
2019-03-26T15:41:21.683Z,46.17
2019-03-26T15:43:45.938Z,45.23
2019-03-26T15:46:16.399Z,47.86
2019-03-26T15:48:46.349Z,45.46
2019-03-26T15:51:15.923Z,49.39
2019-03-26T15:53:45.507Z,44.85
2019-03-26T15:56:15.097Z,45.61
2019-03-26T15:58:44.687Z,44.72
2019-03-26T16:01:14.551Z,48.83
2019-03-26T16:03:44.233Z,49.58
2019-03-26T16:06:13.832Z,50.00
2019-03-26T16:08:43.440Z,51.48
2019-03-26T16:11:13.588Z,51.06
2019-03-26T16:13:43.186Z,50.17
2019-03-26T16:16:13.123Z,47.57
2019-03-26T16:18:42.995Z,51.80
2019-03-26T16:21:12.620Z,51.65
2019-03-26T16:23:42.232Z,52.10
2019-03-26T16:26:11.818Z,51.57
2019-03-26T16:28:42.008Z,54.52
2019-03-26T16:31:13.089Z,55.02
2019-03-26T16:33:42.778Z,56.55
2019-03-26T16:36:16.106Z,55.39
2019-03-26T16:38:46.170Z,56.50
2019-03-26T16:41:15.753Z,59.34
2019-03-26T16:43:45.381Z,58.42
2019-03-26T16:46:14.943Z,58.54
2019-03-26T16:48:44.754Z,59.20
2019-03-26T16:51:14.350Z,59.31
2019-03-26T16:53:44.226Z,60.59
2019-03-26T16:56:13.783Z,58.73
2019-03-26T16:58:46.197Z,59.79
2019-03-26T17:01:15.789Z,57.08
2019-03-26T17:03:45.683Z,58.71
2019-03-26T17:06:15.229Z,56.73
2019-03-26T17:08:44.814Z,57.98
2019-03-26T17:11:14.663Z,57.97
2019-03-26T17:13:44.304Z,60.27
2019-03-26T17:16:13.946Z,59.47
2019-03-26T17:18:43.545Z,59.02
2019-03-26T17:21:13.155Z,55.86
2019-03-26T17:23:44.012Z,57.20
2019-03-26T17:26:15.571Z,59.82
2019-03-26T17:28:45.221Z,58.29
2019-03-26T17:31:14.856Z,59.17
2019-03-26T17:33:44.697Z,59.63
2019-03-26T17:36:14.297Z,63.49
2019-03-26T17:38:44.349Z,62.03
2019-03-26T17:41:14.381Z,62.83
2019-03-26T17:43:44.249Z,62.65
2019-03-26T17:46:13.824Z,62.95
2019-03-26T17:48:43.532Z,64.56
2019-03-26T17:51:13.067Z,64.40
2019-03-26T17:53:42.671Z,64.40
2019-03-26T17:56:12.255Z,66.51
2019-03-26T17:58:41.852Z,66.77
2019-03-26T18:01:11.759Z,64.90
2019-03-26T18:03:41.674Z,65.86
2019-03-26T18:06:11.277Z,65.86
2019-03-26T18:08:41.203Z,66.10
2019-03-26T18:11:10.800Z,66.61
2019-03-26T18:13:40.403Z,67.12
2019-03-26T18:16:10.018Z,67.70
2019-03-26T18:18:39.650Z,66.92
2019-03-26T18:21:09.413Z,67.14
2019-03-26T18:23:38.989Z,68.14
2019-03-26T18:26:08.890Z,68.83
2019-03-26T18:28:38.901Z,68.77
2019-03-26T18:31:08.522Z,68.43
2019-03-26T18:33:38.532Z,70.11
2019-03-26T18:36:08.137Z,70.17
2019-03-26T18:38:38.042Z,69.45
2019-03-26T18:41:07.839Z,70.03
2019-03-26T18:43:37.451Z,70.06
2019-03-26T18:46:07.346Z,71.38
2019-03-26T18:48:36.944Z,70.18
2019-03-26T18:51:06.508Z,71.13
2019-03-26T18:53:36.119Z,71.63
2019-03-26T18:56:06.045Z,71.26
2019-03-26T18:58:35.700Z,71.69
2019-03-26T19:01:05.323Z,72.20
2019-03-26T19:03:35.259Z,72.05
2019-03-26T19:06:05.197Z,72.34
2019-03-26T19:08:34.803Z,73.52
2019-03-26T19:11:04.409Z,73.26
2019-03-26T19:13:33.993Z,73.44
2019-03-26T19:16:03.617Z,74.00
2019-03-26T19:18:33.249Z,73.92
2019-03-26T19:21:03.072Z,74.37
2019-03-26T19:23:32.745Z,75.10
2019-03-26T19:26:02.339Z,75.62
2019-03-26T19:28:32.403Z,75.50
2019-03-26T19:31:05.495Z,75.33
2019-03-26T19:33:35.077Z,75.59
2019-03-26T19:36:04.861Z,75.43
2019-03-26T19:38:34.781Z,75.09
2019-03-26T19:41:04.485Z,75.33
2019-03-26T19:43:34.790Z,75.22
2019-03-26T19:46:04.427Z,75.86
2019-03-26T19:48:33.980Z,76.06
2019-03-26T19:51:03.607Z,76.45
2019-03-26T19:53:33.182Z,76.13
2019-03-26T19:56:02.758Z,76.15
2019-03-26T19:58:32.643Z,76.12
2019-03-26T20:01:02.274Z,76.51
2019-03-26T20:03:31.878Z,76.53
2019-03-26T20:06:12.844Z,76.51
2019-03-26T20:08:33.520Z,76.76
2019-03-26T20:11:03.227Z,77.18
2019-03-26T20:13:34.280Z,77.55
2019-03-26T20:16:04.213Z,77.67
2019-03-26T20:18:33.834Z,77.57
2019-03-26T20:21:03.535Z,78.46
2019-03-26T20:23:33.201Z,78.29
2019-03-26T20:26:02.771Z,78.09
2019-03-26T20:28:34.179Z,77.71
2019-03-26T20:31:03.862Z,77.80
2019-03-26T20:33:33.815Z,78.05
2019-03-26T20:36:03.714Z,78.36
2019-03-26T20:38:33.327Z,78.28
2019-03-26T20:41:03.397Z,78.10
2019-03-26T20:43:37.434Z,78.62
2019-03-26T20:46:05.467Z,78.44
2019-03-26T20:48:35.040Z,78.19
2019-03-26T20:51:04.607Z,78.24
2019-03-26T20:53:34.607Z,77.90
2019-03-26T20:56:04.495Z,77.81
2019-03-26T20:58:34.138Z,76.86
2019-03-26T21:01:04.108Z,77.43
2019-03-26T21:03:33.726Z,77.25
2019-03-26T21:06:03.707Z,78.12
2019-03-26T21:08:33.601Z,78.55
2019-03-26T21:11:03.199Z,79.41
2019-03-26T21:13:32.805Z,79.47
2019-03-26T21:16:02.702Z,79.63
2019-03-26T21:18:32.288Z,79.79
2019-03-26T21:21:01.945Z,79.58
2019-03-26T21:23:31.536Z,78.89
2019-03-26T21:26:01.431Z,79.57
2019-03-26T21:28:31.287Z,80.00
2019-03-26T21:31:00.990Z,79.65
2019-03-26T21:33:30.599Z,79.76
2019-03-26T21:36:00.201Z,79.95
2019-03-26T21:38:29.796Z,79.85
2019-03-26T21:40:59.373Z,79.98
2019-03-26T21:43:28.989Z,79.73
2019-03-26T21:45:58.561Z,79.39
2019-03-26T21:48:28.193Z,79.79
2019-03-26T21:50:58.083Z,79.88
2019-03-26T21:53:27.681Z,80.01
2019-03-26T21:56:06.254Z,80.79
2019-03-26T21:58:31.472Z,80.67
2019-03-26T22:01:01.336Z,80.51
2019-03-26T22:03:31.168Z,80.91
2019-03-26T22:06:01.079Z,81.16
2019-03-26T22:08:30.963Z,81.22
2019-03-26T22:11:00.807Z,81.19
2019-03-26T22:13:30.391Z,81.68
2019-03-26T22:15:59.938Z,81.55
2019-03-26T22:18:29.571Z,81.44
2019-03-26T22:20:59.145Z,81.57
2019-03-26T22:23:28.792Z,81.77
2019-03-26T22:25:59.033Z,82.21
2019-03-26T22:28:28.542Z,82.58
2019-03-26T22:30:58.166Z,82.37
2019-03-26T22:33:27.772Z,82.67
2019-03-26T22:35:57.342Z,82.19
2019-03-26T22:38:26.927Z,82.38
2019-03-26T22:40:56.821Z,82.58
2019-03-26T22:43:26.379Z,82.30
2019-03-26T22:45:55.949Z,82.22
2019-03-26T22:48:25.519Z,82.58
2019-03-26T22:50:55.241Z,82.80
2019-03-26T22:53:24.853Z,82.80
2019-03-26T22:55:54.426Z,82.59
2019-03-26T22:58:24.166Z,82.55
2019-03-26T23:00:53.890Z,82.53
2019-03-26T23:03:23.482Z,82.75
2019-03-26T23:05:53.188Z,83.00
2019-03-26T23:08:23.534Z,82.83
2019-03-26T23:10:53.105Z,82.78
2019-03-26T23:13:23.018Z,82.68
2019-03-26T23:15:52.606Z,82.19
2019-03-26T23:18:22.597Z,82.05
2019-03-26T23:20:52.229Z,81.99
2019-03-26T23:23:22.242Z,82.17
2019-03-26T23:25:52.188Z,83.43
2019-03-26T23:28:21.776Z,83.01
2019-03-26T23:30:51.430Z,83.35
2019-03-26T23:33:21.051Z,83.53
2019-03-26T23:35:50.668Z,83.37
2019-03-26T23:38:20.276Z,83.47
2019-03-26T23:40:49.871Z,83.99
2019-03-26T23:43:19.942Z,83.92
2019-03-26T23:45:49.555Z,83.83
2019-03-26T23:48:19.168Z,83.57
2019-03-26T23:50:48.782Z,83.29
2019-03-26T23:53:18.344Z,83.16
2019-03-26T23:55:48.216Z,82.90
2019-03-26T23:58:18.114Z,83.17
